sensor_id;sensor_type;location;lat;lon;timestamp;temperature;humidity
26537;DHT22;14204;51.262;5.488;2022-11-12T00:00:28;8.10;99.90
26537;DHT22;14204;51.262;5.488;2022-11-12T00:02:55;8.10;99.90
26537;DHT22;14204;51.262;5.488;2022-11-12T00:05:20;8.00;99.90
26537;DHT22;14204;51.262;5.488;2022-11-12T00:07:46;8.00;99.90
26537;DHT22;14204;51.262;5.488;2022-11-12T00:10:12;8.10;99.90
26537;DHT22;14204;51.262;5.488;2022-11-12T00:12:37;8.00;99.90
26537;DHT22;14204;51.262;5.488;2022-11-12T00:15:03;8.00;99.90
26537;DHT22;14204;51.262;5.488;2022-11-12T00:17:29;8.00;99.90
26537;DHT22;14204;51.262;5.488;2022-11-12T00:19:54;8.10;99.90
26537;DHT22;14204;51.262;5.488;2022-11-12T00:22:20;8.00;99.90
26537;DHT22;14204;51.262;5.488;2022-11-12T00:24:46;8.00;99.90
26537;DHT22;14204;51.262;5.488;2022-11-12T00:27:12;8.00;99.90
26537;DHT22;14204;51.262;5.488;2022-11-12T00:29:38;8.00;99.90
26537;DHT22;14204;51.262;5.488;2022-11-12T00:32:07;8.00;99.90
26537;DHT22;14204;51.262;5.488;2022-11-12T00:34:34;7.90;99.90
26537;DHT22;14204;51.262;5.488;2022-11-12T00:37:00;7.90;99.90
26537;DHT22;14204;51.262;5.488;2022-11-12T00:39:26;7.90;99.90
26537;DHT22;14204;51.262;5.488;2022-11-12T00:41:52;7.90;99.90
26537;DHT22;14204;51.262;5.488;2022-11-12T00:44:17;7.90;99.90
26537;DHT22;14204;51.262;5.488;2022-11-12T00:46:43;7.90;99.90
26537;DHT22;14204;51.262;5.488;2022-11-12T00:49:09;7.90;99.90
26537;DHT22;14204;51.262;5.488;2022-11-12T00:51:34;7.90;99.90
26537;DHT22;14204;51.262;5.488;2022-11-12T00:54:00;7.90;99.90
26537;DHT22;14204;51.262;5.488;2022-11-12T00:56:26;7.80;99.90
26537;DHT22;14204;51.262;5.488;2022-11-12T00:58:52;7.90;99.90
26537;DHT22;14204;51.262;5.488;2022-11-12T01:01:18;7.80;99.90
26537;DHT22;14204;51.262;5.488;2022-11-12T01:03:43;7.80;99.90
26537;DHT22;14204;51.262;5.488;2022-11-12T01:06:15;7.70;99.90
26537;DHT22;14204;51.262;5.488;2022-11-12T01:08:42;7.70;99.90
26537;DHT22;14204;51.262;5.488;2022-11-12T01:11:10;7.70;99.90
26537;DHT22;14204;51.262;5.488;2022-11-12T01:13:38;7.80;99.90
26537;DHT22;14204;51.262;5.488;2022-11-12T01:16:09;7.80;99.90
26537;DHT22;14204;51.262;5.488;2022-11-12T01:18:35;7.80;99.90
26537;DHT22;14204;51.262;5.488;2022-11-12T01:21:02;7.80;99.90
26537;DHT22;14204;51.262;5.488;2022-11-12T01:23:28;7.80;99.90
26537;DHT22;14204;51.262;5.488;2022-11-12T01:25:54;7.70;99.90
26537;DHT22;14204;51.262;5.488;2022-11-12T01:28:19;7.80;99.90
26537;DHT22;14204;51.262;5.488;2022-11-12T01:30:45;7.80;99.90
26537;DHT22;14204;51.262;5.488;2022-11-12T01:33:10;7.80;99.90
26537;DHT22;14204;51.262;5.488;2022-11-12T01:35:36;7.80;99.90
26537;DHT22;14204;51.262;5.488;2022-11-12T01:38:02;7.80;99.90
26537;DHT22;14204;51.262;5.488;2022-11-12T01:40:27;7.70;99.90
26537;DHT22;14204;51.262;5.488;2022-11-12T01:42:53;7.70;99.90
26537;DHT22;14204;51.262;5.488;2022-11-12T01:45:19;7.70;99.90
26537;DHT22;14204;51.262;5.488;2022-11-12T01:47:47;7.70;99.90
26537;DHT22;14204;51.262;5.488;2022-11-12T01:50:21;7.70;99.90
26537;DHT22;14204;51.262;5.488;2022-11-12T01:52:53;7.70;99.90
26537;DHT22;14204;51.262;5.488;2022-11-12T01:55:28;7.70;99.90
26537;DHT22;14204;51.262;5.488;2022-11-12T01:58:09;7.70;99.90
26537;DHT22;14204;51.262;5.488;2022-11-12T02:00:36;7.60;99.90
26537;DHT22;14204;51.262;5.488;2022-11-12T02:03:05;7.60;99.90
26537;DHT22;14204;51.262;5.488;2022-11-12T02:05:34;7.50;99.90
26537;DHT22;14204;51.262;5.488;2022-11-12T02:08:01;7.60;99.90
26537;DHT22;14204;51.262;5.488;2022-11-12T02:10:28;7.50;99.90
26537;DHT22;14204;51.262;5.488;2022-11-12T02:12:54;7.50;99.90
26537;DHT22;14204;51.262;5.488;2022-11-12T02:15:40;7.50;99.90
26537;DHT22;14204;51.262;5.488;2022-11-12T02:18:06;7.50;99.90
26537;DHT22;14204;51.262;5.488;2022-11-12T02:20:34;7.40;99.90
26537;DHT22;14204;51.262;5.488;2022-11-12T02:22:59;7.40;99.90
26537;DHT22;14204;51.262;5.488;2022-11-12T02:25:26;7.40;99.90
26537;DHT22;14204;51.262;5.488;2022-11-12T02:27:53;7.40;99.90
26537;DHT22;14204;51.262;5.488;2022-11-12T02:30:35;7.30;99.90
26537;DHT22;14204;51.262;5.488;2022-11-12T02:33:01;7.30;99.90
26537;DHT22;14204;51.262;5.488;2022-11-12T02:35:28;7.30;99.90
26537;DHT22;14204;51.262;5.488;2022-11-12T02:37:54;7.30;99.90
26537;DHT22;14204;51.262;5.488;2022-11-12T02:40:20;7.30;99.90
26537;DHT22;14204;51.262;5.488;2022-11-12T02:42:46;7.30;99.90
26537;DHT22;14204;51.262;5.488;2022-11-12T02:45:12;7.30;99.90
26537;DHT22;14204;51.262;5.488;2022-11-12T02:47:38;7.30;99.90
26537;DHT22;14204;51.262;5.488;2022-11-12T02:50:03;7.30;99.90
26537;DHT22;14204;51.262;5.488;2022-11-12T02:52:29;7.30;99.90
26537;DHT22;14204;51.262;5.488;2022-11-12T02:54:56;7.30;99.90
26537;DHT22;14204;51.262;5.488;2022-11-12T02:57:22;7.30;99.90
26537;DHT22;14204;51.262;5.488;2022-11-12T02:59:48;7.30;99.90
26537;DHT22;14204;51.262;5.488;2022-11-12T03:02:13;7.30;99.90
26537;DHT22;14204;51.262;5.488;2022-11-12T03:04:39;7.30;99.90
26537;DHT22;14204;51.262;5.488;2022-11-12T03:07:05;7.30;99.90
26537;DHT22;14204;51.262;5.488;2022-11-12T03:09:30;7.30;99.90
26537;DHT22;14204;51.262;5.488;2022-11-12T03:11:56;7.20;99.90
26537;DHT22;14204;51.262;5.488;2022-11-12T03:14:22;7.20;99.90
26537;DHT22;14204;51.262;5.488;2022-11-12T03:16:47;7.20;99.90
26537;DHT22;14204;51.262;5.488;2022-11-12T03:19:13;7.20;99.90
26537;DHT22;14204;51.262;5.488;2022-11-12T03:21:39;7.20;99.90
26537;DHT22;14204;51.262;5.488;2022-11-12T03:24:04;7.20;99.90
26537;DHT22;14204;51.262;5.488;2022-11-12T03:26:30;7.20;99.90
26537;DHT22;14204;51.262;5.488;2022-11-12T03:28:56;7.20;99.90
26537;DHT22;14204;51.262;5.488;2022-11-12T03:31:22;7.20;99.90
26537;DHT22;14204;51.262;5.488;2022-11-12T03:33:47;7.20;99.90
26537;DHT22;14204;51.262;5.488;2022-11-12T03:36:13;7.10;99.90
26537;DHT22;14204;51.262;5.488;2022-11-12T03:38:39;7.00;99.90
26537;DHT22;14204;51.262;5.488;2022-11-12T03:41:04;7.00;99.90
26537;DHT22;14204;51.262;5.488;2022-11-12T03:43:30;7.00;99.90
26537;DHT22;14204;51.262;5.488;2022-11-12T03:45:56;7.00;99.90
26537;DHT22;14204;51.262;5.488;2022-11-12T03:48:22;7.00;99.90
26537;DHT22;14204;51.262;5.488;2022-11-12T03:50:48;7.00;99.90
26537;DHT22;14204;51.262;5.488;2022-11-12T03:53:13;7.00;99.90
26537;DHT22;14204;51.262;5.488;2022-11-12T03:55:39;7.00;99.90
26537;DHT22;14204;51.262;5.488;2022-11-12T03:58:05;7.00;99.90
26537;DHT22;14204;51.262;5.488;2022-11-12T04:00:30;7.00;99.90
26537;DHT22;14204;51.262;5.488;2022-11-12T04:02:57;7.10;99.90
26537;DHT22;14204;51.262;5.488;2022-11-12T04:05:24;7.00;99.90
26537;DHT22;14204;51.262;5.488;2022-11-12T04:08:17;7.10;99.90
26537;DHT22;14204;51.262;5.488;2022-11-12T04:11:13;7.00;99.90
26537;DHT22;14204;51.262;5.488;2022-11-12T04:13:40;7.00;99.90
26537;DHT22;14204;51.262;5.488;2022-11-12T04:16:17;7.00;99.90
26537;DHT22;14204;51.262;5.488;2022-11-12T04:19:03;7.00;99.90
26537;DHT22;14204;51.262;5.488;2022-11-12T04:21:48;7.10;99.90
26537;DHT22;14204;51.262;5.488;2022-11-12T04:24:25;7.10;99.90
26537;DHT22;14204;51.262;5.488;2022-11-12T04:27:14;7.10;99.90
26537;DHT22;14204;51.262;5.488;2022-11-12T04:29:41;7.10;99.90
26537;DHT22;14204;51.262;5.488;2022-11-12T04:32:25;7.10;99.90
26537;DHT22;14204;51.262;5.488;2022-11-12T04:34:51;7.10;99.90
26537;DHT22;14204;51.262;5.488;2022-11-12T04:37:17;7.00;99.90
26537;DHT22;14204;51.262;5.488;2022-11-12T04:39:43;7.00;99.90
26537;DHT22;14204;51.262;5.488;2022-11-12T04:42:09;7.00;99.90
26537;DHT22;14204;51.262;5.488;2022-11-12T04:44:54;7.00;99.90
26537;DHT22;14204;51.262;5.488;2022-11-12T04:47:33;7.00;99.90
26537;DHT22;14204;51.262;5.488;2022-11-12T04:50:00;7.00;99.90
26537;DHT22;14204;51.262;5.488;2022-11-12T04:52:27;7.00;99.90
26537;DHT22;14204;51.262;5.488;2022-11-12T04:54:54;7.00;99.90
26537;DHT22;14204;51.262;5.488;2022-11-12T04:57:20;7.00;99.90
26537;DHT22;14204;51.262;5.488;2022-11-12T04:59:46;6.90;99.90
26537;DHT22;14204;51.262;5.488;2022-11-12T05:02:12;6.90;99.90
26537;DHT22;14204;51.262;5.488;2022-11-12T05:04:38;6.90;99.90
26537;DHT22;14204;51.262;5.488;2022-11-12T05:07:04;6.90;99.90
26537;DHT22;14204;51.262;5.488;2022-11-12T05:09:30;6.80;99.90
26537;DHT22;14204;51.262;5.488;2022-11-12T05:11:56;6.80;99.90
26537;DHT22;14204;51.262;5.488;2022-11-12T05:14:22;6.90;99.90
26537;DHT22;14204;51.262;5.488;2022-11-12T05:16:48;6.90;99.90
26537;DHT22;14204;51.262;5.488;2022-11-12T05:19:14;6.90;99.90
26537;DHT22;14204;51.262;5.488;2022-11-12T05:21:39;6.90;99.90
26537;DHT22;14204;51.262;5.488;2022-11-12T05:24:24;6.90;99.90
26537;DHT22;14204;51.262;5.488;2022-11-12T05:26:50;6.90;99.90
26537;DHT22;14204;51.262;5.488;2022-11-12T05:29:16;6.80;99.90
26537;DHT22;14204;51.262;5.488;2022-11-12T05:31:41;6.80;99.90
26537;DHT22;14204;51.262;5.488;2022-11-12T05:34:07;6.80;99.90
26537;DHT22;14204;51.262;5.488;2022-11-12T05:36:32;6.80;99.90
26537;DHT22;14204;51.262;5.488;2022-11-12T05:38:58;6.70;99.90
26537;DHT22;14204;51.262;5.488;2022-11-12T05:41:24;6.70;99.90
26537;DHT22;14204;51.262;5.488;2022-11-12T05:43:50;6.80;99.90
26537;DHT22;14204;51.262;5.488;2022-11-12T05:46:16;6.80;99.90
26537;DHT22;14204;51.262;5.488;2022-11-12T05:48:42;6.80;99.90
26537;DHT22;14204;51.262;5.488;2022-11-12T05:51:08;6.80;99.90
26537;DHT22;14204;51.262;5.488;2022-11-12T05:53:33;6.80;99.90
26537;DHT22;14204;51.262;5.488;2022-11-12T05:56:03;6.80;99.90
26537;DHT22;14204;51.262;5.488;2022-11-12T05:58:29;6.90;99.90
26537;DHT22;14204;51.262;5.488;2022-11-12T06:00:56;6.80;99.90
26537;DHT22;14204;51.262;5.488;2022-11-12T06:03:22;6.80;99.90
26537;DHT22;14204;51.262;5.488;2022-11-12T06:05:48;6.80;99.90
26537;DHT22;14204;51.262;5.488;2022-11-12T06:08:14;6.80;99.90
26537;DHT22;14204;51.262;5.488;2022-11-12T06:10:40;6.80;99.90
26537;DHT22;14204;51.262;5.488;2022-11-12T06:13:06;6.80;99.90
26537;DHT22;14204;51.262;5.488;2022-11-12T06:15:32;6.70;99.90
26537;DHT22;14204;51.262;5.488;2022-11-12T06:17:58;6.80;99.90
26537;DHT22;14204;51.262;5.488;2022-11-12T06:20:23;6.80;99.90
26537;DHT22;14204;51.262;5.488;2022-11-12T06:22:49;6.80;99.90
26537;DHT22;14204;51.262;5.488;2022-11-12T06:25:16;6.70;99.90
26537;DHT22;14204;51.262;5.488;2022-11-12T06:27:41;6.60;99.90
26537;DHT22;14204;51.262;5.488;2022-11-12T06:30:08;6.70;99.90
26537;DHT22;14204;51.262;5.488;2022-11-12T06:32:33;6.60;99.90
26537;DHT22;14204;51.262;5.488;2022-11-12T06:34:59;6.60;99.90
26537;DHT22;14204;51.262;5.488;2022-11-12T06:37:25;6.50;99.90
26537;DHT22;14204;51.262;5.488;2022-11-12T06:39:51;6.50;99.90
26537;DHT22;14204;51.262;5.488;2022-11-12T06:42:17;6.50;99.90
26537;DHT22;14204;51.262;5.488;2022-11-12T06:44:42;6.60;99.90
26537;DHT22;14204;51.262;5.488;2022-11-12T06:47:08;6.60;99.90
26537;DHT22;14204;51.262;5.488;2022-11-12T06:49:34;6.60;99.90
26537;DHT22;14204;51.262;5.488;2022-11-12T06:52:00;6.60;99.90
26537;DHT22;14204;51.262;5.488;2022-11-12T06:54:26;6.50;99.90
26537;DHT22;14204;51.262;5.488;2022-11-12T06:56:51;6.50;99.90
26537;DHT22;14204;51.262;5.488;2022-11-12T06:59:17;6.50;99.90
26537;DHT22;14204;51.262;5.488;2022-11-12T07:01:43;6.50;99.90
26537;DHT22;14204;51.262;5.488;2022-11-12T07:04:09;6.60;99.90
26537;DHT22;14204;51.262;5.488;2022-11-12T07:06:35;6.60;99.90
26537;DHT22;14204;51.262;5.488;2022-11-12T07:09:01;6.60;99.90
26537;DHT22;14204;51.262;5.488;2022-11-12T07:11:27;6.60;99.90
26537;DHT22;14204;51.262;5.488;2022-11-12T07:13:53;6.60;99.90
26537;DHT22;14204;51.262;5.488;2022-11-12T07:16:18;6.60;99.90
26537;DHT22;14204;51.262;5.488;2022-11-12T07:18:45;6.60;99.90
26537;DHT22;14204;51.262;5.488;2022-11-12T07:21:13;6.60;99.90
26537;DHT22;14204;51.262;5.488;2022-11-12T07:23:39;6.60;99.90
26537;DHT22;14204;51.262;5.488;2022-11-12T07:26:20;6.60;99.90
26537;DHT22;14204;51.262;5.488;2022-11-12T07:28:48;6.50;99.90
26537;DHT22;14204;51.262;5.488;2022-11-12T07:31:16;6.50;99.90
26537;DHT22;14204;51.262;5.488;2022-11-12T07:33:42;6.40;99.90
26537;DHT22;14204;51.262;5.488;2022-11-12T07:36:10;6.50;99.90
26537;DHT22;14204;51.262;5.488;2022-11-12T07:38:37;6.50;99.90
26537;DHT22;14204;51.262;5.488;2022-11-12T07:41:05;6.60;99.90
26537;DHT22;14204;51.262;5.488;2022-11-12T07:43:32;6.60;99.90
26537;DHT22;14204;51.262;5.488;2022-11-12T07:45:59;6.60;99.90
26537;DHT22;14204;51.262;5.488;2022-11-12T07:48:27;6.60;99.90
26537;DHT22;14204;51.262;5.488;2022-11-12T07:51:01;6.60;99.90
26537;DHT22;14204;51.262;5.488;2022-11-12T07:53:27;6.70;99.90
26537;DHT22;14204;51.262;5.488;2022-11-12T07:55:54;6.70;99.90
26537;DHT22;14204;51.262;5.488;2022-11-12T07:58:21;6.70;99.90
26537;DHT22;14204;51.262;5.488;2022-11-12T08:00:47;6.60;99.90
26537;DHT22;14204;51.262;5.488;2022-11-12T08:03:13;6.60;99.90
26537;DHT22;14204;51.262;5.488;2022-11-12T08:05:38;6.60;99.90
26537;DHT22;14204;51.262;5.488;2022-11-12T08:08:04;6.60;99.90
26537;DHT22;14204;51.262;5.488;2022-11-12T08:10:29;6.60;99.90
26537;DHT22;14204;51.262;5.488;2022-11-12T08:12:55;6.70;99.90
26537;DHT22;14204;51.262;5.488;2022-11-12T08:15:21;6.70;99.90
26537;DHT22;14204;51.262;5.488;2022-11-12T08:17:47;6.80;99.90
26537;DHT22;14204;51.262;5.488;2022-11-12T08:20:12;6.90;99.90
26537;DHT22;14204;51.262;5.488;2022-11-12T08:22:40;6.90;99.90
26537;DHT22;14204;51.262;5.488;2022-11-12T08:25:06;7.00;99.90
26537;DHT22;14204;51.262;5.488;2022-11-12T08:27:32;6.90;99.90
26537;DHT22;14204;51.262;5.488;2022-11-12T08:29:58;7.00;99.90
26537;DHT22;14204;51.262;5.488;2022-11-12T08:32:23;7.10;99.90
26537;DHT22;14204;51.262;5.488;2022-11-12T08:34:49;7.10;99.90
26537;DHT22;14204;51.262;5.488;2022-11-12T08:37:15;7.10;99.90
26537;DHT22;14204;51.262;5.488;2022-11-12T08:39:40;7.10;99.90
26537;DHT22;14204;51.262;5.488;2022-11-12T08:42:06;7.20;99.90
26537;DHT22;14204;51.262;5.488;2022-11-12T08:44:32;7.20;99.90
26537;DHT22;14204;51.262;5.488;2022-11-12T08:46:57;7.20;99.90
26537;DHT22;14204;51.262;5.488;2022-11-12T08:49:24;7.20;99.90
26537;DHT22;14204;51.262;5.488;2022-11-12T08:51:49;7.20;99.90
26537;DHT22;14204;51.262;5.488;2022-11-12T08:54:15;7.20;99.90
26537;DHT22;14204;51.262;5.488;2022-11-12T08:56:40;7.30;99.90
26537;DHT22;14204;51.262;5.488;2022-11-12T08:59:06;7.40;99.90
26537;DHT22;14204;51.262;5.488;2022-11-12T09:01:31;7.40;99.90
26537;DHT22;14204;51.262;5.488;2022-11-12T09:03:57;7.40;99.90
26537;DHT22;14204;51.262;5.488;2022-11-12T09:06:23;7.60;99.90
26537;DHT22;14204;51.262;5.488;2022-11-12T09:08:48;7.60;99.90
26537;DHT22;14204;51.262;5.488;2022-11-12T09:11:14;7.60;99.90
26537;DHT22;14204;51.262;5.488;2022-11-12T09:13:39;7.70;99.90
26537;DHT22;14204;51.262;5.488;2022-11-12T09:16:06;7.70;99.90
26537;DHT22;14204;51.262;5.488;2022-11-12T09:18:33;7.80;99.90
26537;DHT22;14204;51.262;5.488;2022-11-12T09:21:04;7.80;99.90
26537;DHT22;14204;51.262;5.488;2022-11-12T09:23:30;7.90;99.90
26537;DHT22;14204;51.262;5.488;2022-11-12T09:25:57;8.00;99.90
26537;DHT22;14204;51.262;5.488;2022-11-12T09:28:23;8.10;99.90
26537;DHT22;14204;51.262;5.488;2022-11-12T09:30:50;8.20;99.90
26537;DHT22;14204;51.262;5.488;2022-11-12T09:33:19;8.30;99.90
26537;DHT22;14204;51.262;5.488;2022-11-12T09:35:46;8.40;99.90
26537;DHT22;14204;51.262;5.488;2022-11-12T09:38:13;8.40;99.90
26537;DHT22;14204;51.262;5.488;2022-11-12T09:45:48;8.80;99.90
26537;DHT22;14204;51.262;5.488;2022-11-12T09:48:19;8.90;99.90
26537;DHT22;14204;51.262;5.488;2022-11-12T09:50:55;9.00;99.90
26537;DHT22;14204;51.262;5.488;2022-11-12T09:53:33;9.10;99.90
26537;DHT22;14204;51.262;5.488;2022-11-12T09:56:01;9.20;99.90
26537;DHT22;14204;51.262;5.488;2022-11-12T09:58:29;9.30;99.90
26537;DHT22;14204;51.262;5.488;2022-11-12T10:00:58;9.50;99.90
26537;DHT22;14204;51.262;5.488;2022-11-12T10:06:13;9.70;99.90
26537;DHT22;14204;51.262;5.488;2022-11-12T10:09:31;9.80;99.90
26537;DHT22;14204;51.262;5.488;2022-11-12T10:11:49;9.90;99.90
26537;DHT22;14204;51.262;5.488;2022-11-12T10:20:14;10.40;99.90
26537;DHT22;14204;51.262;5.488;2022-11-12T10:25:34;10.60;99.90
26537;DHT22;14204;51.262;5.488;2022-11-12T10:28:01;10.70;99.90
26537;DHT22;14204;51.262;5.488;2022-11-12T10:30:30;10.70;99.90
26537;DHT22;14204;51.262;5.488;2022-11-12T10:32:56;10.90;99.90
26537;DHT22;14204;51.262;5.488;2022-11-12T10:35:22;10.80;99.90
26537;DHT22;14204;51.262;5.488;2022-11-12T10:37:55;11.00;99.90
26537;DHT22;14204;51.262;5.488;2022-11-12T10:40:35;11.00;99.90
26537;DHT22;14204;51.262;5.488;2022-11-12T10:43:05;11.10;99.90
26537;DHT22;14204;51.262;5.488;2022-11-12T10:45:31;11.10;99.90
26537;DHT22;14204;51.262;5.488;2022-11-12T10:47:57;11.10;99.90
26537;DHT22;14204;51.262;5.488;2022-11-12T10:50:36;11.20;99.90
26537;DHT22;14204;51.262;5.488;2022-11-12T10:53:07;11.30;99.90
26537;DHT22;14204;51.262;5.488;2022-11-12T10:55:37;11.50;99.90
26537;DHT22;14204;51.262;5.488;2022-11-12T11:03:24;11.70;99.90
26537;DHT22;14204;51.262;5.488;2022-11-12T11:05:59;11.80;99.90
26537;DHT22;14204;51.262;5.488;2022-11-12T11:08:41;11.90;99.90
26537;DHT22;14204;51.262;5.488;2022-11-12T11:13:46;12.00;99.90
26537;DHT22;14204;51.262;5.488;2022-11-12T11:16:32;12.00;99.90
26537;DHT22;14204;51.262;5.488;2022-11-12T11:19:12;12.10;99.90
26537;DHT22;14204;51.262;5.488;2022-11-12T11:24:33;12.10;99.90
26537;DHT22;14204;51.262;5.488;2022-11-12T11:40:38;12.60;99.90
26537;DHT22;14204;51.262;5.488;2022-11-12T11:57:38;12.90;99.90
26537;DHT22;14204;51.262;5.488;2022-11-12T12:00:24;13.00;99.90
26537;DHT22;14204;51.262;5.488;2022-11-12T12:05:38;13.10;99.90
26537;DHT22;14204;51.262;5.488;2022-11-12T12:08:09;13.20;99.90
26537;DHT22;14204;51.262;5.488;2022-11-12T12:14:01;13.20;99.90
26537;DHT22;14204;51.262;5.488;2022-11-12T12:16:50;13.20;99.90
26537;DHT22;14204;51.262;5.488;2022-11-12T12:21:52;13.30;99.90
26537;DHT22;14204;51.262;5.488;2022-11-12T12:24:31;13.30;99.90
26537;DHT22;14204;51.262;5.488;2022-11-12T12:27:08;13.40;99.90
26537;DHT22;14204;51.262;5.488;2022-11-12T12:29:41;13.40;99.90
26537;DHT22;14204;51.262;5.488;2022-11-12T12:32:17;13.40;99.90
26537;DHT22;14204;51.262;5.488;2022-11-12T12:35:02;13.50;99.90
26537;DHT22;14204;51.262;5.488;2022-11-12T12:40:38;13.50;99.90
26537;DHT22;14204;51.262;5.488;2022-11-12T12:43:15;13.50;99.90
26537;DHT22;14204;51.262;5.488;2022-11-12T12:45:45;13.60;99.90
26537;DHT22;14204;51.262;5.488;2022-11-12T12:48:21;13.50;99.90
26537;DHT22;14204;51.262;5.488;2022-11-12T12:50:50;13.60;99.90
26537;DHT22;14204;51.262;5.488;2022-11-12T12:55:53;13.50;99.90
26537;DHT22;14204;51.262;5.488;2022-11-12T12:58:32;13.50;99.90
26537;DHT22;14204;51.262;5.488;2022-11-12T13:01:05;13.50;99.90
26537;DHT22;14204;51.262;5.488;2022-11-12T13:08:40;13.60;99.90
26537;DHT22;14204;51.262;5.488;2022-11-12T13:11:06;13.60;99.90
26537;DHT22;14204;51.262;5.488;2022-11-12T13:13:37;13.60;99.90
26537;DHT22;14204;51.262;5.488;2022-11-12T13:16:03;13.60;99.90
26537;DHT22;14204;51.262;5.488;2022-11-12T13:21:14;13.60;99.90
26537;DHT22;14204;51.262;5.488;2022-11-12T13:23:45;13.60;99.90
26537;DHT22;14204;51.262;5.488;2022-11-12T13:26:45;13.70;99.90
26537;DHT22;14204;51.262;5.488;2022-11-12T13:31:46;13.90;99.90
26537;DHT22;14204;51.262;5.488;2022-11-12T13:34:31;13.90;99.90
26537;DHT22;14204;51.262;5.488;2022-11-12T13:37:01;13.90;99.90
26537;DHT22;14204;51.262;5.488;2022-11-12T13:39:31;13.90;99.90
26537;DHT22;14204;51.262;5.488;2022-11-12T13:42:00;13.90;99.90
26537;DHT22;14204;51.262;5.488;2022-11-12T13:44:46;13.90;99.90
26537;DHT22;14204;51.262;5.488;2022-11-12T13:47:19;14.00;99.90
26537;DHT22;14204;51.262;5.488;2022-11-12T13:49:46;14.00;99.90
26537;DHT22;14204;51.262;5.488;2022-11-12T13:52:14;14.00;99.90
26537;DHT22;14204;51.262;5.488;2022-11-12T13:54:41;14.00;99.90
26537;DHT22;14204;51.262;5.488;2022-11-12T13:59:48;13.90;99.90
26537;DHT22;14204;51.262;5.488;2022-11-12T14:02:25;14.00;99.90
26537;DHT22;14204;51.262;5.488;2022-11-12T14:04:52;14.00;99.90
26537;DHT22;14204;51.262;5.488;2022-11-12T14:07:42;14.00;99.90
26537;DHT22;14204;51.262;5.488;2022-11-12T14:10:40;14.00;99.90
26537;DHT22;14204;51.262;5.488;2022-11-12T14:20:57;14.00;99.90
26537;DHT22;14204;51.262;5.488;2022-11-12T14:23:29;14.00;99.90
26537;DHT22;14204;51.262;5.488;2022-11-12T14:25:55;14.10;99.90
26537;DHT22;14204;51.262;5.488;2022-11-12T14:28:26;14.00;99.90
26537;DHT22;14204;51.262;5.488;2022-11-12T14:30:53;14.00;99.90
26537;DHT22;14204;51.262;5.488;2022-11-12T14:33:21;13.90;99.90
26537;DHT22;14204;51.262;5.488;2022-11-12T14:35:51;13.90;99.90
26537;DHT22;14204;51.262;5.488;2022-11-12T14:38:33;13.90;99.90
26537;DHT22;14204;51.262;5.488;2022-11-12T14:41:07;13.80;99.90
26537;DHT22;14204;51.262;5.488;2022-11-12T14:43:47;13.70;99.90
26537;DHT22;14204;51.262;5.488;2022-11-12T14:46:45;13.70;99.90
26537;DHT22;14204;51.262;5.488;2022-11-12T14:51:47;13.70;99.90
26537;DHT22;14204;51.262;5.488;2022-11-12T14:54:26;13.70;99.90
26537;DHT22;14204;51.262;5.488;2022-11-12T14:56:54;13.70;99.90
26537;DHT22;14204;51.262;5.488;2022-11-12T14:59:19;13.60;99.90
26537;DHT22;14204;51.262;5.488;2022-11-12T15:04:39;13.50;99.90
26537;DHT22;14204;51.262;5.488;2022-11-12T15:07:05;13.50;99.90
26537;DHT22;14204;51.262;5.488;2022-11-12T15:09:36;13.50;99.90
26537;DHT22;14204;51.262;5.488;2022-11-12T15:12:11;13.60;99.90
26537;DHT22;14204;51.262;5.488;2022-11-12T15:14:43;13.50;99.90
26537;DHT22;14204;51.262;5.488;2022-11-12T15:17:31;13.50;99.90
26537;DHT22;14204;51.262;5.488;2022-11-12T15:20:11;13.50;99.90
26537;DHT22;14204;51.262;5.488;2022-11-12T15:22:38;13.50;99.90
26537;DHT22;14204;51.262;5.488;2022-11-12T15:25:23;13.40;99.90
26537;DHT22;14204;51.262;5.488;2022-11-12T15:27:50;13.30;99.90
26537;DHT22;14204;51.262;5.488;2022-11-12T15:30:20;13.20;99.90
26537;DHT22;14204;51.262;5.488;2022-11-12T15:33:15;13.10;99.90
26537;DHT22;14204;51.262;5.488;2022-11-12T15:35:42;13.00;99.90
26537;DHT22;14204;51.262;5.488;2022-11-12T15:38:24;13.00;99.90
26537;DHT22;14204;51.262;5.488;2022-11-12T15:40:55;12.90;99.90
26537;DHT22;14204;51.262;5.488;2022-11-12T15:43:27;12.90;99.90
26537;DHT22;14204;51.262;5.488;2022-11-12T15:45:54;12.90;99.90
26537;DHT22;14204;51.262;5.488;2022-11-12T15:48:20;12.90;99.90
26537;DHT22;14204;51.262;5.488;2022-11-12T15:50:47;12.90;99.90
26537;DHT22;14204;51.262;5.488;2022-11-12T15:53:13;12.90;99.90
26537;DHT22;14204;51.262;5.488;2022-11-12T15:55:40;12.80;99.90
26537;DHT22;14204;51.262;5.488;2022-11-12T15:58:10;12.70;99.90
26537;DHT22;14204;51.262;5.488;2022-11-12T16:00:37;12.60;99.90
26537;DHT22;14204;51.262;5.488;2022-11-12T16:03:20;12.60;99.90
26537;DHT22;14204;51.262;5.488;2022-11-12T16:05:46;12.70;99.90
26537;DHT22;14204;51.262;5.488;2022-11-12T16:08:13;12.70;99.90
26537;DHT22;14204;51.262;5.488;2022-11-12T16:10:40;12.60;99.90
26537;DHT22;14204;51.262;5.488;2022-11-12T16:13:15;12.50;99.90
26537;DHT22;14204;51.262;5.488;2022-11-12T16:15:41;12.50;99.90
26537;DHT22;14204;51.262;5.488;2022-11-12T16:18:10;12.50;99.90
26537;DHT22;14204;51.262;5.488;2022-11-12T16:20:38;12.40;99.90
26537;DHT22;14204;51.262;5.488;2022-11-12T16:23:04;12.40;99.90
26537;DHT22;14204;51.262;5.488;2022-11-12T16:25:32;12.30;99.90
26537;DHT22;14204;51.262;5.488;2022-11-12T16:28:00;12.30;99.90
26537;DHT22;14204;51.262;5.488;2022-11-12T16:30:31;12.30;99.90
26537;DHT22;14204;51.262;5.488;2022-11-12T16:32:58;12.30;99.90
26537;DHT22;14204;51.262;5.488;2022-11-12T16:35:25;12.30;99.90
26537;DHT22;14204;51.262;5.488;2022-11-12T16:37:53;12.20;99.90
26537;DHT22;14204;51.262;5.488;2022-11-12T16:40:28;12.20;99.90
26537;DHT22;14204;51.262;5.488;2022-11-12T16:42:54;12.10;99.90
26537;DHT22;14204;51.262;5.488;2022-11-12T16:45:24;12.00;99.90
26537;DHT22;14204;51.262;5.488;2022-11-12T16:47:56;12.00;99.90
26537;DHT22;14204;51.262;5.488;2022-11-12T16:50:24;12.00;99.90
26537;DHT22;14204;51.262;5.488;2022-11-12T16:52:51;12.00;99.90
26537;DHT22;14204;51.262;5.488;2022-11-12T16:55:17;12.00;99.90
26537;DHT22;14204;51.262;5.488;2022-11-12T16:57:43;11.90;99.90
26537;DHT22;14204;51.262;5.488;2022-11-12T17:00:11;11.90;99.90
26537;DHT22;14204;51.262;5.488;2022-11-12T17:02:37;11.80;99.90
26537;DHT22;14204;51.262;5.488;2022-11-12T17:05:05;11.70;99.90
26537;DHT22;14204;51.262;5.488;2022-11-12T17:07:32;11.70;99.90
26537;DHT22;14204;51.262;5.488;2022-11-12T17:09:57;11.70;99.90
26537;DHT22;14204;51.262;5.488;2022-11-12T17:12:23;11.70;99.90
26537;DHT22;14204;51.262;5.488;2022-11-12T17:14:49;11.70;99.90
26537;DHT22;14204;51.262;5.488;2022-11-12T17:17:14;11.70;99.90
26537;DHT22;14204;51.262;5.488;2022-11-12T17:19:40;11.70;99.90
26537;DHT22;14204;51.262;5.488;2022-11-12T17:22:06;11.70;99.90
26537;DHT22;14204;51.262;5.488;2022-11-12T17:24:32;11.70;99.90
26537;DHT22;14204;51.262;5.488;2022-11-12T17:26:57;11.70;99.90